Flight Track Log - Related Links

Times and Time Zones

All times are in EDT time to prevent confusion due to time zone crossing. See the SWA1866 flight status page for this flight to view local times or setup timezone preferences in your user account.

Time Position Orientation Groundspeed Altitude Reporting Facility
EDT Latitude Longitude Course Direction KTS MPH feet Rate Location/Type
Wed 10:52:26 AM 37.3833 -121.9500 322° Northwest 147 169 1,800  Level Northern Cal TRACON
Wed 10:53:20 AM 37.4167 -121.9833 322° Northwest 189 217 4,000 1,737 Climbing Northern Cal TRACON
Wed 10:54:20 AM 37.4333 -121.9167 73° East 215 247 5,100 579 Climbing Northern Cal TRACON
Wed 10:55:14 AM 37.4000 -121.8667 130° Southeast 214 246 5,100 1,105 Level Northern Cal TRACON
Wed 10:56:14 AM 37.3667 -121.8167 130° Southeast 229 264 7,200 2,500 Climbing Northern Cal TRACON
Wed 10:57:14 AM 37.3000 -121.7500 141° Southeast 295 339 10,100 3,100 Climbing Northern Cal TRACON
Wed 10:58:14 AM 37.2439 -121.6919 141° Southeast 301 346 13,400 2,727 Climbing Oakland Center
Wed 10:59:15 AM 37.1719 -121.6108 138° Southeast 344 396 15,600 2,705 Climbing Oakland Center
Wed 11:00:16 AM 37.0875 -121.5128 137° Southeast 386 444 18,900 3,268 Climbing Oakland Center
Wed 11:01:18 AM 37.0042 -121.4222 139° Southeast 395 455 22,300 2,976 Climbing Oakland Center
Wed 11:02:19 AM 36.9217 -121.3314 139° Southeast 396 456 25,000 2,262 Climbing Oakland Center
Wed 11:03:20 AM 36.8328 -121.2364 139° Southeast 417 480 26,900 1,967 Climbing Oakland Center
Wed 11:04:21 AM 36.7206 -121.1203 140° Southeast 446 513 29,000 1,854 Climbing Oakland Center
Wed 11:05:23 AM 36.6236 -121.0131 138° Southeast 462 532 30,700 1,805 Climbing Oakland Center
Wed 11:06:24 AM 36.5233 -120.9064 139° Southeast 474 545 32,700 2,262 Climbing Oakland Center
Wed 11:07:25 AM 36.4289 -120.7992 138° Southeast 458 527 35,300 1,918 Climbing Oakland Center
Wed 11:08:26 AM 36.3322 -120.6972 140° Southeast 456 525 36,600 1,171 Climbing Oakland Center
Wed 11:09:28 AM 36.2339 -120.5936 140° Southeast 463 533 37,700 1,171 Climbing Oakland Center
Wed 11:10:29 AM 36.1350 -120.4886 139° Southeast 465 535 39,000 1,180 Climbing Oakland Center
Wed 11:11:30 AM 36.0353 -120.3850 140° Southeast 468 539 40,100 984 Climbing Oakland Center
Wed 11:12:31 AM 35.9381 -120.2822 139° Southeast 461 531 41,000 439 Climbing Oakland Center
Wed 11:13:33 AM 35.8406 -120.1806 140° Southeast 458 527 41,000  Level Oakland Center
Wed 11:14:34 AM 35.7439 -120.0792 140° Southeast 455 524 41,000  Level Oakland Center
Wed 11:15:35 AM 35.6261 -119.9575 140° Southeast 456 525 41,000  Level Oakland Center
Wed 11:16:37 AM 35.5214 -119.8683 145° Southeast 455 524 41,000  Level Oakland Center
Wed 11:17:38 AM 35.4169 -119.7794 145° Southeast 454 522 41,000 -98 Level Oakland Center
Wed 11:18:39 AM 35.3133 -119.6903 145° Southeast 453 521 40,800 -293 Descending Oakland Center
Wed 11:19:00 AM 35.2928 -119.6736 147° Southeast 455 524 40,600 -1,012 Descending Los Angeles Center
Wed 11:20:02 AM 35.1672 -119.5656 145° Southeast 457 526 39,400 -1,306 Descending Los Angeles Center
Wed 11:21:04 AM 35.0619 -119.4753 145° Southeast 460 529 37,900 -1,984 Descending Los Angeles Center
Wed 11:22:06 AM 34.9569 -119.3864 145° Southeast 460 529 35,300 -1,935 Descending Los Angeles Center
Wed 11:23:08 AM 34.8742 -119.3153 145° Southeast 457 526 33,900 -1,200 Descending Los Angeles Center
Wed 11:24:11 AM 34.7614 -119.2233 146° Southeast 409 471 32,800 -1,680 Descending Los Angeles Center
Wed 11:25:13 AM 34.6692 -119.1450 145° Southeast 402 463 30,400 -2,468 Descending Los Angeles Center
Wed 11:26:15 AM 34.5517 -119.0464 145° Southeast 454 522 27,700 -2,710 Descending Los Angeles Center
Wed 11:27:17 AM 34.4417 -118.9550 146° Southeast 475 547 24,800 -2,806 Descending Los Angeles Center
Wed 11:28:19 AM 34.3328 -118.8714 148° Southeast 459 528 21,900 -2,613 Descending Los Angeles Center
Wed 11:29:21 AM 34.2375 -118.8369 163° South 449 517 19,400 -2,952 Descending Los Angeles Center
Wed 11:30:23 AM 34.0789 -118.7797 163° South 423 487 15,800 -2,565 Descending Los Angeles Center
Wed 11:31:25 AM 33.9728 -118.7400 163° South 385 443 14,100 -823 Descending Los Angeles Center
Wed 11:32:27 AM 33.8767 -118.7044 163° South 366 421 14,100  Level Los Angeles Center
Wed 11:33:29 AM 33.7839 -118.6719 164° South 363 418 14,100 -1,210 Level Los Angeles Center
Wed 11:34:31 AM 33.6669 -118.6314 164° South 371 427 11,600 -1,872 Descending Los Angeles Center
Wed 11:35:34 AM 33.5797 -118.5847 156° South 350 403 10,200 -1,104 Descending Los Angeles Center
Wed 11:36:36 AM 33.5708 -118.4836 96° East 314 361 9,300 -919 Descending Los Angeles Center
Wed 11:37:38 AM 33.5708 -118.3883 90° East 296 341 8,300 -1,065 Descending Los Angeles Center
Wed 11:38:40 AM 33.5700 -118.2800 90° East 283 326 7,100 -1,065 Descending Los Angeles Center
Wed 11:39:42 AM 33.5697 -118.1936 90° East 272 313 6,100 -1,016 Descending Los Angeles Center
Wed 11:40:44 AM 33.5881 -118.1200 73° East 259 298 5,000 -581 Descending Los Angeles Center
Wed 11:41:46 AM 33.6233 -118.0653 52° Northeast 220 253 4,900 44 Descending Los Angeles Center
Wed 11:42:59 AM 33.6833 -118.0167 34° Northeast 192 221 5,100 94 Climbing Southern California TRACON
Wed 11:43:53 AM 33.7167 -117.9667 51° Northeast 186 214 5,100 -200 Level Southern California TRACON
Wed 11:44:59 AM 33.7500 -117.9333 40° Northeast 190 219 4,700 -714 Descending Southern California TRACON
Wed 11:45:59 AM 33.8000 -117.8833 40° Northeast 207 238 3,600 -835 Descending Southern California TRACON
Wed 11:46:54 AM 33.8333 -117.8500 40° Northeast 212 244 3,100 -261 Descending Southern California TRACON
Wed 11:47:54 AM 33.8500 -117.7833 73° East 213 245 3,100 -149 Level Southern California TRACON
Wed 11:48:55 AM 33.8000 -117.7833 180° South 205 236 2,800 -545 Descending Southern California TRACON
Wed 11:49:55 AM 33.7667 -117.8167 220° Southwest 179 206 2,000 -857 Descending Southern California TRACON
Wed 11:51:01 AM 33.7167 -117.8333 195° South 130 150 1,000 -810 Descending Southern California TRACON
Wed 11:52:01 AM 33.6833 -117.8667 220° Southwest 132 152 300 -700 Descending Southern California TRACON

Login

Don't have an account? Register now (free) for customized features, flight alerts, and more!